createdAt,value
2018-12-24T00:02:03.599Z,6.20
2018-12-24T00:04:44.468Z,6.20
2018-12-24T00:07:25.477Z,6.20
2018-12-24T00:10:06.633Z,6.10
2018-12-24T00:12:47.608Z,6.20
2018-12-24T00:15:28.737Z,6.20
2018-12-24T00:18:09.763Z,6.10
2018-12-24T00:20:50.819Z,6.10
2018-12-24T00:23:32.413Z,6.20
2018-12-24T00:26:13.265Z,6.10
2018-12-24T00:28:54.374Z,6.10
2018-12-24T00:31:35.289Z,6.00
2018-12-24T00:34:16.429Z,5.90
2018-12-24T00:36:57.338Z,5.80
2018-12-24T00:39:38.566Z,5.60
2018-12-24T00:42:20.137Z,5.60
2018-12-24T00:45:01.236Z,5.50
2018-12-24T00:47:42.043Z,5.40
2018-12-24T00:50:23.690Z,5.30
2018-12-24T00:53:04.882Z,5.30
2018-12-24T00:55:45.794Z,5.20
2018-12-24T00:58:27.071Z,5.10
2018-12-24T01:01:08.291Z,5.10
2018-12-24T01:03:49.882Z,5.10
2018-12-24T01:06:30.901Z,5.10
2018-12-24T01:09:12.035Z,5.10
2018-12-24T01:11:53.193Z,5.10
2018-12-24T01:14:34.930Z,5.20
2018-12-24T01:17:15.736Z,5.10
2018-12-24T01:19:56.578Z,5.20
2018-12-24T01:22:38.270Z,5.20
2018-12-24T01:25:19.958Z,5.20
2018-12-24T01:28:01.716Z,5.20
2018-12-24T01:30:42.554Z,5.20
2018-12-24T01:33:23.619Z,5.10
2018-12-24T01:36:42.787Z,5.10
2018-12-24T01:39:24.570Z,5.10
2018-12-24T01:42:05.050Z,5.10
2018-12-24T01:44:46.017Z,5.00
2018-12-24T01:47:26.586Z,5.00
2018-12-24T01:50:07.432Z,5.00
2018-12-24T01:52:48.025Z,5.00
2018-12-24T01:55:29.202Z,5.00
2018-12-24T01:58:10.661Z,5.00
2018-12-24T02:00:51.873Z,4.80
2018-12-24T02:03:32.513Z,4.80
2018-12-24T02:06:13.349Z,4.80
2018-12-24T02:08:53.889Z,4.70
2018-12-24T02:11:34.814Z,4.70
2018-12-24T02:14:16.224Z,4.70
2018-12-24T02:16:57.661Z,4.60
2018-12-24T02:19:39.246Z,4.50
2018-12-24T02:22:20.173Z,4.50
2018-12-24T02:25:01.156Z,4.60
2018-12-24T02:27:42.209Z,4.70
2018-12-24T02:30:23.687Z,4.70
2018-12-24T02:33:05.014Z,4.80
2018-12-24T02:35:45.851Z,4.70
2018-12-24T02:38:27.142Z,4.60
2018-12-24T02:41:07.704Z,4.40
2018-12-24T02:43:48.776Z,4.40
2018-12-24T02:46:30.045Z,4.40
2018-12-24T02:49:11.042Z,4.40
2018-12-24T02:51:51.997Z,4.40
2018-12-24T02:54:32.617Z,4.40
2018-12-24T02:57:13.205Z,4.40
2018-12-24T02:59:54.415Z,4.30
2018-12-24T03:02:38.181Z,4.40
2018-12-24T03:05:19.711Z,4.20
2018-12-24T03:08:00.306Z,4.10
2018-12-24T03:10:41.686Z,4.00
2018-12-24T03:13:22.998Z,4.10
2018-12-24T03:16:03.766Z,4.00
2018-12-24T03:18:44.578Z,4.00
2018-12-24T03:21:25.279Z,4.00
2018-12-24T03:24:06.033Z,4.00
2018-12-24T03:26:47.462Z,4.10
2018-12-24T03:29:28.326Z,4.10
2018-12-24T03:32:08.996Z,4.10
2018-12-24T03:34:50.336Z,4.20
2018-12-24T03:37:31.553Z,4.20
2018-12-24T03:40:12.262Z,4.20
2018-12-24T03:42:53.155Z,4.30
2018-12-24T03:45:34.243Z,4.30
2018-12-24T03:48:15.453Z,4.20
2018-12-24T03:50:56.198Z,4.10
2018-12-24T03:53:37.591Z,4.10
2018-12-24T03:56:18.521Z,4.10
2018-12-24T03:58:59.460Z,4.10
2018-12-24T04:01:40.729Z,4.10
2018-12-24T04:04:21.330Z,4.00
2018-12-24T04:07:01.864Z,3.90
2018-12-24T04:09:42.476Z,3.90
2018-12-24T04:12:24.010Z,3.80
2018-12-24T04:15:04.614Z,3.90
2018-12-24T04:17:45.730Z,3.90
2018-12-24T04:20:26.972Z,3.90
2018-12-24T04:23:07.549Z,3.90
2018-12-24T04:25:48.965Z,3.70
2018-12-24T04:28:30.369Z,3.60
2018-12-24T04:31:11.092Z,3.50
2018-12-24T04:33:51.890Z,3.40
2018-12-24T04:36:32.765Z,3.30
2018-12-24T04:39:13.425Z,3.30
2018-12-24T04:41:54.294Z,3.30
2018-12-24T04:44:35.614Z,3.20
2018-12-24T04:47:16.614Z,3.20
2018-12-24T04:49:57.677Z,3.10
2018-12-24T04:52:38.921Z,3.10
2018-12-24T04:55:19.395Z,3.10
2018-12-24T04:58:00.682Z,3.10
2018-12-24T05:00:41.928Z,3.10
2018-12-24T05:03:22.946Z,3.00
2018-12-24T05:06:03.969Z,3.00
2018-12-24T05:08:45.321Z,3.00
2018-12-24T05:11:26.273Z,2.90
2018-12-24T05:14:07.302Z,3.00
2018-12-24T05:16:48.373Z,3.00
2018-12-24T05:19:29.166Z,3.00
2018-12-24T05:22:10.099Z,3.10
2018-12-24T05:24:51.090Z,3.10
2018-12-24T05:27:31.909Z,3.10
2018-12-24T05:30:12.814Z,3.10
2018-12-24T05:32:53.378Z,3.10
2018-12-24T05:35:34.189Z,3.10
2018-12-24T05:38:15.396Z,3.00
2018-12-24T05:40:56.522Z,3.10
2018-12-24T05:43:38.035Z,3.10
2018-12-24T05:46:19.013Z,3.20
2018-12-24T05:48:59.985Z,3.20
2018-12-24T05:51:41.311Z,3.20
2018-12-24T05:54:21.996Z,3.20
2018-12-24T05:57:02.804Z,3.00
2018-12-24T05:59:43.703Z,2.90
2018-12-24T06:02:24.166Z,2.70
2018-12-24T06:05:05.010Z,2.70
2018-12-24T06:07:45.766Z,2.60
2018-12-24T06:10:27.247Z,2.50
2018-12-24T06:13:08.122Z,2.40
2018-12-24T06:15:49.625Z,2.40
2018-12-24T06:18:30.412Z,2.40
2018-12-24T06:21:13.086Z,2.40
2018-12-24T06:23:54.048Z,2.40
2018-12-24T06:26:34.729Z,2.50
2018-12-24T06:29:15.445Z,2.40
2018-12-24T06:31:56.290Z,2.50
2018-12-24T06:34:36.890Z,2.50
2018-12-24T06:37:18.018Z,2.50
2018-12-24T06:39:58.882Z,2.50
2018-12-24T06:42:39.702Z,2.60
2018-12-24T06:45:20.314Z,2.60
2018-12-24T06:48:00.846Z,2.50
2018-12-24T06:50:41.925Z,2.40
2018-12-24T06:53:23.370Z,2.30
2018-12-24T06:56:03.941Z,2.20
2018-12-24T06:58:45.409Z,2.10
2018-12-24T07:01:26.640Z,2.10
2018-12-24T07:04:07.358Z,2.10
2018-12-24T07:06:48.758Z,2.10
2018-12-24T07:09:30.324Z,2.10
2018-12-24T07:12:10.905Z,2.10
2018-12-24T07:14:52.453Z,2.10
2018-12-24T07:17:33.765Z,2.10
2018-12-24T07:20:14.751Z,2.10
2018-12-24T07:22:56.224Z,2.10
2018-12-24T07:25:36.839Z,2.10
2018-12-24T07:28:17.390Z,2.00
2018-12-24T07:30:58.078Z,2.00
2018-12-24T07:33:38.813Z,2.10
2018-12-24T07:36:19.574Z,2.10
2018-12-24T07:39:00.401Z,2.10
2018-12-24T07:41:41.082Z,2.20
2018-12-24T07:44:24.284Z,2.20
2018-12-24T07:47:04.289Z,2.20
2018-12-24T07:49:45.570Z,2.30
2018-12-24T07:52:28.601Z,2.40
2018-12-24T07:55:09.734Z,2.30
2018-12-24T07:57:51.238Z,2.30
2018-12-24T08:00:32.705Z,2.10
2018-12-24T08:03:13.726Z,2.10
2018-12-24T08:05:54.361Z,2.00
2018-12-24T08:08:35.738Z,2.00
2018-12-24T08:11:16.921Z,2.00
2018-12-24T08:13:57.846Z,1.90
2018-12-24T08:16:39.277Z,2.00
2018-12-24T08:19:19.872Z,2.00
2018-12-24T08:22:00.726Z,1.90
2018-12-24T08:24:41.299Z,1.90
2018-12-24T08:27:22.001Z,1.90
2018-12-24T08:30:02.756Z,1.80
2018-12-24T08:32:44.214Z,1.80
2018-12-24T08:35:25.592Z,1.80
2018-12-24T08:38:07.207Z,1.60
2018-12-24T08:40:48.161Z,1.70
2018-12-24T08:43:29.306Z,1.70
2018-12-24T08:46:09.845Z,1.80
2018-12-24T08:48:51.041Z,1.80
2018-12-24T08:51:31.984Z,1.80
2018-12-24T08:54:12.974Z,1.60
2018-12-24T08:56:53.925Z,1.60
2018-12-24T08:59:35.461Z,1.50
2018-12-24T09:02:15.974Z,1.60
2018-12-24T09:04:56.547Z,1.60
2018-12-24T09:07:37.086Z,1.70
2018-12-24T09:10:17.897Z,1.60
2018-12-24T09:12:58.989Z,1.60
2018-12-24T09:15:39.702Z,1.70
2018-12-24T09:18:20.591Z,1.60
2018-12-24T09:21:02.015Z,1.60
2018-12-24T09:23:43.084Z,1.60
2018-12-24T09:26:23.653Z,1.70
2018-12-24T09:29:04.223Z,1.60
2018-12-24T09:31:45.238Z,1.60
2018-12-24T09:34:26.678Z,1.60
2018-12-24T09:37:07.620Z,1.60
2018-12-24T09:39:48.464Z,1.60
2018-12-24T09:42:29.625Z,1.70
2018-12-24T09:45:10.610Z,1.80
2018-12-24T09:47:51.830Z,1.70
2018-12-24T09:50:33.162Z,1.70
2018-12-24T09:53:13.936Z,1.80
2018-12-24T09:55:55.018Z,1.80
2018-12-24T09:58:36.484Z,1.90
2018-12-24T10:01:17.593Z,1.90
2018-12-24T10:04:02.885Z,1.80
2018-12-24T10:06:41.085Z,1.80
2018-12-24T10:09:21.826Z,1.80
2018-12-24T10:12:02.913Z,1.90
2018-12-24T10:14:43.933Z,2.00
2018-12-24T10:17:24.569Z,2.00
2018-12-24T10:20:06.726Z,2.00
2018-12-24T10:22:47.314Z,2.00
2018-12-24T10:25:29.607Z,1.90
2018-12-24T10:28:10.170Z,2.00
2018-12-24T10:30:51.482Z,2.20
2018-12-24T10:33:33.613Z,2.20
2018-12-24T10:36:14.558Z,2.20
2018-12-24T10:38:55.682Z,2.10
2018-12-24T10:41:37.002Z,2.10
2018-12-24T10:44:17.959Z,2.10
2018-12-24T10:46:58.554Z,2.20
2018-12-24T10:49:39.420Z,2.30
2018-12-24T10:52:20.759Z,2.40
2018-12-24T10:55:01.868Z,2.20
2018-12-24T10:57:42.671Z,2.10
2018-12-24T11:00:24.112Z,2.00
2018-12-24T11:03:05.070Z,2.00
2018-12-24T11:05:46.741Z,2.00
2018-12-24T11:08:27.922Z,2.00
2018-12-24T11:11:08.579Z,1.90
2018-12-24T11:13:49.284Z,1.90
2018-12-24T11:16:30.663Z,2.00
2018-12-24T11:19:11.399Z,2.00
2018-12-24T11:21:52.774Z,2.10
2018-12-24T11:24:33.526Z,2.10
2018-12-24T11:27:14.462Z,2.10
2018-12-24T11:29:55.552Z,2.00
2018-12-24T11:32:36.451Z,1.90
2018-12-24T11:35:17.760Z,1.90
2018-12-24T11:37:58.661Z,1.80
2018-12-24T11:40:40.003Z,1.70
2018-12-24T11:43:20.770Z,1.70
2018-12-24T11:46:01.690Z,1.80
2018-12-24T11:48:42.636Z,1.70
2018-12-24T11:51:24.042Z,1.80
2018-12-24T11:54:05.370Z,1.90
2018-12-24T11:56:46.527Z,1.90
2018-12-24T11:59:27.862Z,2.00
2018-12-24T12:02:10.055Z,2.00
2018-12-24T12:04:50.757Z,2.10
2018-12-24T12:07:31.270Z,2.10
2018-12-24T12:10:12.210Z,2.10
2018-12-24T12:12:52.937Z,2.10
2018-12-24T12:15:33.542Z,2.10
2018-12-24T12:18:14.603Z,2.10
2018-12-24T12:20:55.225Z,2.10
2018-12-24T12:23:35.829Z,2.10
2018-12-24T12:26:17.458Z,2.00
2018-12-24T12:28:58.785Z,2.10
2018-12-24T12:31:40.513Z,2.10
2018-12-24T12:34:21.829Z,2.20
2018-12-24T12:37:03.167Z,2.20
2018-12-24T12:39:45.530Z,2.20
2018-12-24T12:42:26.247Z,2.30
2018-12-24T12:45:07.522Z,2.20
2018-12-24T12:47:48.212Z,2.30
2018-12-24T12:50:28.890Z,2.30
2018-12-24T12:53:09.546Z,2.30
2018-12-24T12:55:50.752Z,2.30
2018-12-24T12:58:31.262Z,2.40
2018-12-24T13:01:12.189Z,2.40
2018-12-24T13:03:53.537Z,2.40
2018-12-24T13:06:22.562Z,2.40
2018-12-24T13:09:10.789Z,2.40
2018-12-24T13:11:51.464Z,2.40
2018-12-24T13:14:32.509Z,2.30
2018-12-24T13:17:13.529Z,2.30
2018-12-24T13:19:54.182Z,2.40
2018-12-24T13:22:34.917Z,2.40
2018-12-24T13:25:15.524Z,2.30
2018-12-24T13:27:57.169Z,2.40
2018-12-24T13:30:38.554Z,2.30
2018-12-24T13:33:19.890Z,2.40
2018-12-24T13:36:00.478Z,2.40
2018-12-24T13:38:41.542Z,2.40
2018-12-24T13:41:22.939Z,2.30
2018-12-24T13:44:03.925Z,2.30
2018-12-24T13:46:45.325Z,2.30
2018-12-24T13:49:26.728Z,2.40
2018-12-24T13:52:07.278Z,2.40
2018-12-24T13:54:48.681Z,2.40
2018-12-24T13:57:29.437Z,2.40
2018-12-24T14:00:10.874Z,2.30
2018-12-24T14:02:52.094Z,2.40
2018-12-24T14:05:32.742Z,2.40
2018-12-24T14:08:13.323Z,2.30
2018-12-24T14:10:54.005Z,2.40
2018-12-24T14:13:34.671Z,2.40
2018-12-24T14:16:16.822Z,2.50
2018-12-24T14:18:57.789Z,2.50
2018-12-24T14:21:39.173Z,2.40
2018-12-24T14:24:20.705Z,2.40
2018-12-24T14:27:02.302Z,2.40
2018-12-24T14:29:45.507Z,2.40
2018-12-24T14:32:26.726Z,2.50
2018-12-24T14:35:08.038Z,2.50
2018-12-24T14:37:49.059Z,2.40
2018-12-24T14:40:29.749Z,2.40
2018-12-24T14:43:10.646Z,2.40
2018-12-24T14:45:51.509Z,2.50
2018-12-24T14:48:32.770Z,2.50
2018-12-24T14:51:13.905Z,2.40
2018-12-24T14:53:54.546Z,2.50
2018-12-24T14:56:35.671Z,2.50
2018-12-24T14:59:19.235Z,2.50
2018-12-24T15:02:00.554Z,2.50
2018-12-24T15:04:42.544Z,2.50
2018-12-24T15:07:23.498Z,2.50
2018-12-24T15:10:04.488Z,2.50
2018-12-24T15:12:45.758Z,2.50
2018-12-24T15:15:27.153Z,2.60
2018-12-24T15:18:08.185Z,2.50
2018-12-24T15:20:49.110Z,2.60
2018-12-24T15:23:30.077Z,2.60
2018-12-24T15:26:10.976Z,2.60
2018-12-24T15:28:51.570Z,2.60
2018-12-24T15:31:32.419Z,2.50
2018-12-24T15:34:13.414Z,2.50
2018-12-24T15:36:53.949Z,2.60
2018-12-24T15:39:34.512Z,2.60
2018-12-24T15:42:15.796Z,2.60
2018-12-24T15:44:56.295Z,2.70
2018-12-24T15:47:37.295Z,2.70
2018-12-24T15:50:18.745Z,2.70
2018-12-24T15:53:00.998Z,2.60
2018-12-24T15:55:42.487Z,2.50
2018-12-24T15:58:23.412Z,2.60
2018-12-24T16:01:04.183Z,2.60
2018-12-24T16:03:45.165Z,2.60
2018-12-24T16:06:25.898Z,2.60
2018-12-24T16:09:07.342Z,2.70
2018-12-24T16:11:48.290Z,2.60
2018-12-24T16:14:29.743Z,2.50
2018-12-24T16:17:10.642Z,2.50
2018-12-24T16:19:52.136Z,2.50
2018-12-24T16:22:33.569Z,2.60
2018-12-24T16:25:14.979Z,2.60
2018-12-24T16:27:56.329Z,2.50
2018-12-24T16:30:37.605Z,2.60
2018-12-24T16:33:18.403Z,2.70
2018-12-24T16:35:59.529Z,2.70
2018-12-24T16:38:40.542Z,2.70
2018-12-24T16:41:21.806Z,2.70
2018-12-24T16:44:03.217Z,2.80
2018-12-24T16:46:44.524Z,2.70
2018-12-24T16:49:25.230Z,2.70
2018-12-24T16:52:05.778Z,2.70
2018-12-24T16:54:47.150Z,2.80
2018-12-24T16:57:28.481Z,2.60
2018-12-24T17:00:10.166Z,2.70
2018-12-24T17:02:51.874Z,2.70
2018-12-24T17:05:33.401Z,2.70
2018-12-24T17:08:16.064Z,2.80
2018-12-24T17:10:56.738Z,2.70
2018-12-24T17:13:38.075Z,2.70
2018-12-24T17:16:19.157Z,2.60
2018-12-24T17:18:59.652Z,2.60
2018-12-24T17:23:01.044Z,2.60
2018-12-24T17:25:30.139Z,2.70
2018-12-24T17:27:59.226Z,2.70
2018-12-24T17:30:28.601Z,2.60
2018-12-24T17:32:57.657Z,2.60
2018-12-24T17:35:26.796Z,2.70
2018-12-24T17:37:55.740Z,2.70
2018-12-24T17:40:24.870Z,2.60
2018-12-24T17:42:53.994Z,2.60
2018-12-24T17:45:23.004Z,2.60
2018-12-24T17:47:52.043Z,2.70
2018-12-24T17:50:21.197Z,2.70
2018-12-24T17:52:50.208Z,2.70
2018-12-24T17:55:19.310Z,2.70
2018-12-24T17:57:48.402Z,2.70
2018-12-24T18:00:17.506Z,2.50
2018-12-24T18:02:47.831Z,2.50
2018-12-24T18:05:16.866Z,2.40
2018-12-24T18:07:45.888Z,2.30
2018-12-24T18:10:15.274Z,2.10
2018-12-24T18:12:44.353Z,2.10
2018-12-24T18:15:13.483Z,2.10
2018-12-24T18:17:42.522Z,2.20
2018-12-24T18:20:11.750Z,2.20
2018-12-24T18:22:40.772Z,2.30
2018-12-24T18:25:09.796Z,2.30
2018-12-24T18:27:38.933Z,2.40
2018-12-24T18:30:08.922Z,2.30
2018-12-24T18:32:37.973Z,2.40
2018-12-24T18:35:08.199Z,2.40
2018-12-24T18:37:37.165Z,2.40
2018-12-24T18:40:06.566Z,2.40
2018-12-24T18:42:35.661Z,2.40
2018-12-24T18:45:04.837Z,2.40
2018-12-24T18:47:33.930Z,2.40
2018-12-24T18:50:04.077Z,2.40
2018-12-24T18:52:33.172Z,2.40
2018-12-24T18:55:02.229Z,2.40
2018-12-24T18:57:31.339Z,2.40
2018-12-24T19:00:00.489Z,2.40
2018-12-24T19:02:29.502Z,2.40
2018-12-24T19:04:58.917Z,2.40
2018-12-24T19:07:27.987Z,2.40
2018-12-24T19:09:57.154Z,2.40
2018-12-24T19:12:26.239Z,2.40
2018-12-24T19:14:55.375Z,2.50
2018-12-24T19:17:24.445Z,2.50
2018-12-24T19:19:53.558Z,2.40
2018-12-24T19:22:22.553Z,2.50
2018-12-24T19:24:51.690Z,2.60
2018-12-24T19:27:20.801Z,2.60
2018-12-24T19:29:49.869Z,2.70
2018-12-24T19:32:18.997Z,2.60
2018-12-24T19:34:48.017Z,2.60
2018-12-24T19:37:17.101Z,2.70
2018-12-24T19:39:46.161Z,2.70
2018-12-24T19:42:15.285Z,2.70
2018-12-24T19:44:44.291Z,2.70
2018-12-24T19:47:13.331Z,2.70
2018-12-24T19:49:42.397Z,2.60
2018-12-24T19:52:11.425Z,2.60
2018-12-24T19:54:40.546Z,2.60
2018-12-24T19:57:09.593Z,2.50
2018-12-24T19:59:38.707Z,2.60
2018-12-24T20:02:08.087Z,2.60
2018-12-24T20:04:37.091Z,2.60
2018-12-24T20:07:06.142Z,2.60
2018-12-24T20:09:35.117Z,2.60
2018-12-24T20:12:06.251Z,2.60
2018-12-24T20:14:35.387Z,2.60
2018-12-24T20:17:04.485Z,2.70
2018-12-24T20:19:33.609Z,2.70
2018-12-24T20:22:04.131Z,2.70
2018-12-24T20:24:33.269Z,2.70
2018-12-24T20:27:02.444Z,2.70
2018-12-24T20:29:31.583Z,2.70
2018-12-24T20:32:00.670Z,2.70
2018-12-24T20:34:29.811Z,2.70
2018-12-24T20:36:58.869Z,2.80
2018-12-24T20:39:28.069Z,2.90
2018-12-24T20:41:57.101Z,2.90
2018-12-24T20:44:26.124Z,2.90
2018-12-24T20:46:55.131Z,2.80
2018-12-24T20:49:24.213Z,2.90
2018-12-24T20:51:53.413Z,2.90
2018-12-24T20:54:22.526Z,2.90
2018-12-24T20:56:51.701Z,2.90
2018-12-24T20:59:20.774Z,2.90
2018-12-24T21:01:49.914Z,2.90
2018-12-24T21:04:18.956Z,2.90
2018-12-24T21:06:48.047Z,3.00
2018-12-24T21:09:17.224Z,3.00
2018-12-24T21:11:46.216Z,3.10
2018-12-24T21:14:15.423Z,3.10
2018-12-24T21:16:44.612Z,3.10
2018-12-24T21:19:13.723Z,3.10
2018-12-24T21:21:42.938Z,3.20
2018-12-24T21:24:11.918Z,3.10
2018-12-24T21:26:41.086Z,3.00
2018-12-24T21:29:10.123Z,3.10
2018-12-24T21:31:39.206Z,3.10
2018-12-24T21:34:08.264Z,3.10
2018-12-24T21:36:37.447Z,3.00
2018-12-24T21:39:07.432Z,3.00
2018-12-24T21:41:36.429Z,3.10
2018-12-24T21:44:05.595Z,3.10
2018-12-24T21:46:34.576Z,3.20
2018-12-24T21:49:03.664Z,3.20
2018-12-24T21:51:32.704Z,3.20
2018-12-24T21:54:01.702Z,3.30
2018-12-24T21:56:30.723Z,3.20
2018-12-24T21:58:59.725Z,3.20
2018-12-24T22:01:28.942Z,3.20
2018-12-24T22:03:58.394Z,3.30
2018-12-24T22:06:28.696Z,3.30
2018-12-24T22:08:57.734Z,3.30
2018-12-24T22:11:27.116Z,3.40
2018-12-24T22:13:56.209Z,3.30
2018-12-24T22:16:25.281Z,3.30
2018-12-24T22:18:54.325Z,3.40
2018-12-24T22:21:23.390Z,3.50
2018-12-24T22:23:52.451Z,3.50
2018-12-24T22:26:21.690Z,3.50
2018-12-24T22:28:51.980Z,3.50
2018-12-24T22:31:20.974Z,3.40
2018-12-24T22:33:50.182Z,3.40
2018-12-24T22:36:19.227Z,3.50
2018-12-24T22:38:48.367Z,3.50
2018-12-24T22:41:17.362Z,3.50
2018-12-24T22:43:46.493Z,3.50
2018-12-24T22:46:15.592Z,3.60
2018-12-24T22:48:44.724Z,3.50
2018-12-24T22:51:13.777Z,3.50
2018-12-24T22:53:42.797Z,3.40
2018-12-24T22:56:11.868Z,3.60
2018-12-24T22:58:40.855Z,3.60
2018-12-24T23:01:10.004Z,3.70
2018-12-24T23:03:39.026Z,3.80
2018-12-24T23:06:08.044Z,3.80
2018-12-24T23:08:37.049Z,3.90
2018-12-24T23:11:06.171Z,3.90
2018-12-24T23:13:35.809Z,3.80
2018-12-24T23:16:05.502Z,3.90
2018-12-24T23:18:35.026Z,4.00
2018-12-24T23:21:04.107Z,4.00
2018-12-24T23:23:33.114Z,4.00
2018-12-24T23:26:04.110Z,4.00
2018-12-24T23:28:32.902Z,4.00
2018-12-24T23:31:02.064Z,4.00
2018-12-24T23:33:31.293Z,4.00
2018-12-24T23:36:00.666Z,4.00
2018-12-24T23:38:29.763Z,4.00
2018-12-24T23:40:58.789Z,4.00
2018-12-24T23:43:28.225Z,4.00
2018-12-24T23:45:57.806Z,4.00
2018-12-24T23:48:27.337Z,4.00
2018-12-24T23:50:56.429Z,4.00
2018-12-24T23:53:25.463Z,4.00
2018-12-24T23:55:54.621Z,4.00
2018-12-24T23:58:23.965Z,4.00
